createdAt,value
2018-08-12T00:00:22.856Z,61.68
2018-08-12T00:01:03.376Z,61.71
2018-08-12T00:01:43.874Z,61.8
2018-08-12T00:02:24.471Z,61.51
2018-08-12T00:03:04.960Z,61.8
2018-08-12T00:03:45.425Z,61.8
2018-08-12T00:04:25.927Z,61.71
2018-08-12T00:05:06.422Z,61.77
2018-08-12T00:05:46.919Z,61.68
2018-08-12T00:06:27.406Z,62.25
2018-08-12T00:07:07.966Z,61.87
2018-08-12T00:07:48.401Z,61.96
2018-08-12T00:08:28.970Z,62.06
2018-08-12T00:09:09.441Z,61.96
2018-08-12T00:09:49.922Z,61.96
2018-08-12T00:10:30.412Z,61.96
2018-08-12T00:11:10.959Z,61.96
2018-08-12T00:11:51.412Z,61.77
2018-08-12T00:12:31.915Z,62.15
2018-08-12T00:13:12.393Z,62.06
2018-08-12T00:13:52.888Z,61.96
2018-08-12T00:14:33.427Z,62.06
2018-08-12T00:15:13.961Z,62.06
2018-08-12T00:15:54.383Z,61.77
2018-08-12T00:16:34.874Z,62.06
2018-08-12T00:17:15.382Z,61.68
2018-08-12T00:17:55.879Z,62.35
2018-08-12T00:18:36.379Z,61.87
2018-08-12T00:19:16.889Z,61.58
2018-08-12T00:19:57.398Z,61.77
2018-08-12T00:20:37.915Z,61.87
2018-08-12T00:21:18.393Z,61.87
2018-08-12T00:21:58.959Z,61.38
2018-08-12T00:22:39.389Z,61.38
2018-08-12T00:23:19.892Z,61.22
2018-08-12T00:24:00.409Z,60.93
2018-08-12T00:24:41.054Z,61
2018-08-12T00:25:21.501Z,61.29
2018-08-12T00:26:02.017Z,60.93
2018-08-12T00:26:42.616Z,60.93
2018-08-12T00:27:23.149Z,60.45
2018-08-12T00:28:03.653Z,60.83
2018-08-12T00:28:44.181Z,60.35
2018-08-12T00:29:24.686Z,61.03
2018-08-12T00:30:05.193Z,61.41
2018-08-12T00:30:45.723Z,61.1
2018-08-12T00:31:26.186Z,60.93
2018-08-12T00:32:06.673Z,61.1
2018-08-12T00:32:47.195Z,61.48
2018-08-12T00:33:27.698Z,61.29
2018-08-12T00:34:08.203Z,61.29
2018-08-12T00:34:48.678Z,61
2018-08-12T00:35:29.216Z,61.38
2018-08-12T00:36:09.694Z,61.68
2018-08-12T00:36:50.209Z,61.87
2018-08-12T00:37:30.748Z,61.68
2018-08-12T00:38:11.266Z,61.77
2018-08-12T00:38:51.708Z,61.68
2018-08-12T00:39:32.234Z,61.68
2018-08-12T00:40:12.766Z,61.58
2018-08-12T00:40:53.262Z,61.68
2018-08-12T00:41:33.754Z,61.48
2018-08-12T00:42:14.241Z,61.68
2018-08-12T00:42:54.750Z,61.96
2018-08-12T00:43:35.189Z,61.68
2018-08-12T00:44:15.738Z,61.77
2018-08-12T00:44:56.234Z,61.87
2018-08-12T00:45:36.715Z,62.25
2018-08-12T00:46:17.200Z,62.35
2018-08-12T00:46:57.711Z,61.93
2018-08-12T00:47:38.222Z,62.06
2018-08-12T00:48:18.763Z,61.96
2018-08-12T00:48:59.270Z,61.77
2018-08-12T00:49:39.722Z,61.96
2018-08-12T00:50:20.216Z,61.77
2018-08-12T00:51:00.715Z,62.15
2018-08-12T00:51:41.208Z,62.32
2018-08-12T00:52:21.722Z,61.77
2018-08-12T00:53:02.219Z,61.77
2018-08-12T00:53:42.736Z,61.96
2018-08-12T00:54:23.238Z,61.96
2018-08-12T00:55:03.722Z,61.87
2018-08-12T00:55:44.219Z,61.77
2018-08-12T00:56:24.733Z,61.96
2018-08-12T00:57:05.286Z,61.58
2018-08-12T00:57:45.707Z,61.68
2018-08-12T00:58:26.199Z,61.58
2018-08-12T00:59:06.696Z,61.77
2018-08-12T00:59:47.179Z,62.06
2018-08-12T01:00:27.666Z,62.15
2018-08-12T01:01:08.141Z,61.77
2018-08-12T01:01:48.632Z,62.03
2018-08-12T01:02:29.127Z,62.41
2018-08-12T01:03:09.671Z,62.7
2018-08-12T01:03:50.234Z,62.9
2018-08-12T01:04:30.861Z,62.9
2018-08-12T01:05:11.342Z,62.51
2018-08-12T01:05:51.829Z,62.7
2018-08-12T01:06:32.313Z,63.28
2018-08-12T01:07:12.821Z,63.09
2018-08-12T01:07:53.374Z,63.18
2018-08-12T01:08:33.904Z,63.09
2018-08-12T01:09:14.388Z,63.31
2018-08-12T01:09:54.933Z,62.6
2018-08-12T01:10:35.397Z,62.63
2018-08-12T01:11:15.963Z,63.21
2018-08-12T01:11:56.461Z,62.9
2018-08-12T01:14:09.724Z,63.09
2018-08-12T01:14:50.243Z,63.18
2018-08-12T01:15:30.753Z,63.28
2018-08-12T01:16:11.251Z,63.28
2018-08-12T01:16:51.745Z,63.09
2018-08-12T01:17:32.252Z,63.28
2018-08-12T01:18:12.747Z,63.38
2018-08-12T01:18:53.231Z,63.28
2018-08-12T01:19:33.781Z,63.57
2018-08-12T01:20:14.228Z,63.18
2018-08-12T01:20:54.719Z,63.28
2018-08-12T01:21:35.220Z,63.09
2018-08-12T01:22:15.699Z,63.18
2018-08-12T01:22:56.246Z,62.99
2018-08-12T01:23:36.692Z,62.99
2018-08-12T01:24:17.151Z,63.31
2018-08-12T01:24:57.682Z,63.02
2018-08-12T01:25:38.139Z,63.18
2018-08-12T01:26:18.609Z,62.9
2018-08-12T01:26:59.158Z,63.02
2018-08-12T01:27:39.587Z,62.99
2018-08-12T01:28:20.093Z,62.83
2018-08-12T01:29:00.594Z,62.51
2018-08-12T01:29:41.104Z,62.99
2018-08-12T01:30:21.603Z,62.9
2018-08-12T01:31:02.103Z,62.8
2018-08-12T01:31:42.585Z,63.09
2018-08-12T01:32:23.087Z,63.38
2018-08-12T01:33:03.633Z,63.09
2018-08-12T01:33:44.101Z,63.09
2018-08-12T01:34:24.612Z,63.09
2018-08-12T01:35:05.121Z,62.7
2018-08-12T01:35:45.640Z,63.18
2018-08-12T01:36:26.121Z,62.99
2018-08-12T01:37:07.582Z,62.9
2018-08-12T01:37:48.058Z,62.51
2018-08-12T01:38:28.548Z,63.18
2018-08-12T01:39:09.037Z,62.73
2018-08-12T01:39:49.569Z,62.99
2018-08-12T01:40:30.043Z,62.7
2018-08-12T01:41:10.597Z,62.83
2018-08-12T01:41:51.037Z,62.7
2018-08-12T01:42:31.535Z,62.99
2018-08-12T01:43:12.043Z,63.09
2018-08-12T01:43:52.482Z,62.32
2018-08-12T01:44:32.997Z,62.9
2018-08-12T01:45:13.511Z,63.25
2018-08-12T01:45:53.945Z,63.82
2018-08-12T01:46:34.396Z,63.82
2018-08-12T01:47:14.932Z,63.82
2018-08-12T01:47:55.416Z,64.05
2018-08-12T01:48:35.906Z,63.38
2018-08-12T01:49:16.562Z,63.28
2018-08-12T01:49:57.052Z,63.47
2018-08-12T01:50:37.526Z,63.38
2018-08-12T01:51:18.049Z,63.28
2018-08-12T01:51:58.557Z,62.99
2018-08-12T01:52:39.048Z,62.8
2018-08-12T01:53:19.483Z,63.18
2018-08-12T01:54:00.133Z,62.9
2018-08-12T01:54:40.660Z,62.9
2018-08-12T01:55:21.127Z,62.9
2018-08-12T01:56:01.631Z,62.99
2018-08-12T01:56:42.115Z,62.6
2018-08-12T01:57:22.605Z,62.7
2018-08-12T01:58:03.154Z,63.18
2018-08-12T01:58:43.644Z,62.7
2018-08-12T01:59:24.128Z,62.7
2018-08-12T02:00:04.649Z,62.99
2018-08-12T02:00:45.120Z,62.8
2018-08-12T02:01:25.628Z,62.8
2018-08-12T02:02:06.102Z,62.99
2018-08-12T02:02:46.569Z,62.7
2018-08-12T02:03:27.056Z,62.7
2018-08-12T02:04:07.658Z,62.7
2018-08-12T02:04:48.160Z,62.6
2018-08-12T02:05:28.686Z,63.28
2018-08-12T02:06:09.138Z,63.09
2018-08-12T02:06:49.671Z,62.7
2018-08-12T02:07:30.163Z,62.99
2018-08-12T02:08:10.720Z,63.28
2018-08-12T02:08:51.403Z,63.18
2018-08-12T02:09:31.797Z,63.18
2018-08-12T02:10:12.327Z,63.18
2018-08-12T02:10:52.792Z,62.87
2018-08-12T02:11:33.301Z,63.09
2018-08-12T02:12:13.805Z,62.96
2018-08-12T02:12:54.328Z,62.9
2018-08-12T02:13:34.809Z,62.87
2018-08-12T02:14:15.349Z,62.87
2018-08-12T02:14:55.872Z,63.34
2018-08-12T02:15:36.351Z,63.06
2018-08-12T02:16:16.924Z,63.25
2018-08-12T02:16:57.403Z,62.96
2018-08-12T02:17:37.930Z,62.87
2018-08-12T02:18:18.406Z,62.8
2018-08-12T02:18:58.941Z,63.06
2018-08-12T02:19:39.427Z,63.28
2018-08-12T02:20:19.959Z,62.7
2018-08-12T02:21:00.536Z,62.8
2018-08-12T02:21:40.959Z,62.99
2018-08-12T02:22:21.430Z,62.41
2018-08-12T02:23:01.909Z,62.12
2018-08-12T02:23:42.434Z,62.12
2018-08-12T02:24:22.951Z,61.74
2018-08-12T02:25:03.606Z,62.03
2018-08-12T02:25:44.045Z,62.32
2018-08-12T02:26:24.554Z,62.32
2018-08-12T02:27:05.054Z,62.29
2018-08-12T02:27:45.530Z,62.32
2018-08-12T02:28:26.044Z,61.74
2018-08-12T02:29:06.532Z,61.74
2018-08-12T02:29:47.010Z,61.45
2018-08-12T02:30:27.571Z,61.52
2018-08-12T02:31:08.059Z,61.71
2018-08-12T02:31:48.579Z,62
2018-08-12T02:32:29.072Z,61.61
2018-08-12T02:33:09.581Z,62.09
2018-08-12T02:33:50.180Z,62.09
2018-08-12T02:34:30.657Z,62.57
2018-08-12T02:35:11.166Z,62.67
2018-08-12T02:35:51.652Z,62.96
2018-08-12T02:36:32.147Z,62.87
2018-08-12T02:37:12.643Z,62.87
2018-08-12T02:37:53.135Z,62.57
2018-08-12T02:38:33.616Z,62.48
2018-08-12T02:39:14.110Z,62.57
2018-08-12T02:39:54.604Z,62.77
2018-08-12T02:40:35.115Z,61.93
2018-08-12T02:41:15.594Z,62.41
2018-08-12T02:41:56.056Z,62
2018-08-12T02:42:36.561Z,61.9
2018-08-12T02:43:17.260Z,61.71
2018-08-12T02:43:57.743Z,61.9
2018-08-12T02:44:38.246Z,62.12
2018-08-12T02:45:18.726Z,62.12
2018-08-12T02:45:59.244Z,61.42
2018-08-12T02:46:39.726Z,62.19
2018-08-12T02:47:20.239Z,62
2018-08-12T02:48:00.724Z,61.8
2018-08-12T02:48:41.217Z,62
2018-08-12T02:49:21.766Z,62
2018-08-12T02:50:02.243Z,62.38
2018-08-12T02:50:42.738Z,62
2018-08-12T02:51:23.212Z,62.29
2018-08-12T02:52:03.712Z,62.67
2018-08-12T02:52:44.148Z,62.57
2018-08-12T02:53:24.666Z,62.96
2018-08-12T02:54:05.231Z,62.87
2018-08-12T02:54:45.655Z,62.67
2018-08-12T02:55:26.186Z,62.77
2018-08-12T02:56:06.714Z,62.57
2018-08-12T02:56:47.139Z,62.8
2018-08-12T02:57:27.649Z,62.38
2018-08-12T02:58:08.174Z,62.87
2018-08-12T02:58:48.686Z,62.67
2018-08-12T02:59:29.174Z,62.29
2018-08-12T03:00:09.727Z,62.51
2018-08-12T03:00:50.224Z,62.32
2018-08-12T03:01:30.720Z,61.8
2018-08-12T03:02:11.178Z,62.57
2018-08-12T03:04:00.194Z,62.57
2018-08-12T03:04:40.676Z,62.77
2018-08-12T03:05:21.166Z,62.38
2018-08-12T03:06:01.697Z,62.57
2018-08-12T03:06:42.156Z,62.96
2018-08-12T03:07:22.638Z,62.87
2018-08-12T03:08:03.224Z,62.67
2018-08-12T03:08:43.670Z,62.67
2018-08-12T03:09:24.142Z,62.48
2018-08-12T03:10:04.632Z,62.77
2018-08-12T03:10:45.058Z,62.96
2018-08-12T03:11:25.561Z,62.77
2018-08-12T03:12:06.021Z,63.06
2018-08-12T03:12:46.497Z,61.9
2018-08-12T03:13:27.021Z,62
2018-08-12T03:14:07.497Z,62.09
2018-08-12T03:14:47.949Z,61.8
2018-08-12T03:15:28.462Z,62
2018-08-12T03:16:08.959Z,62
2018-08-12T03:16:49.420Z,62
2018-08-12T03:17:29.963Z,62.09
2018-08-12T03:18:10.416Z,62
2018-08-12T03:18:50.890Z,62
2018-08-12T03:19:31.412Z,62.38
2018-08-12T03:20:11.895Z,62.48
2018-08-12T03:20:52.392Z,62.38
2018-08-12T03:21:32.884Z,62.29
2018-08-12T03:22:13.387Z,61.9
2018-08-12T03:22:53.919Z,61.71
2018-08-12T03:23:34.386Z,61.9
2018-08-12T03:24:14.865Z,62.38
2018-08-12T03:24:55.330Z,61.9
2018-08-12T03:25:35.808Z,61.9
2018-08-12T03:26:16.340Z,62.29
2018-08-12T03:26:56.863Z,62.87
2018-08-12T03:27:37.303Z,62.48
2018-08-12T03:28:17.826Z,63.12
2018-08-12T03:28:58.283Z,62.93
2018-08-12T03:29:38.782Z,63.22
2018-08-12T03:30:19.308Z,63.31
2018-08-12T03:30:59.788Z,62.93
2018-08-12T03:31:40.403Z,63.12
2018-08-12T03:32:20.847Z,63.22
2018-08-12T03:33:01.372Z,62.96
2018-08-12T03:33:41.862Z,62.96
2018-08-12T03:34:22.366Z,63.15
2018-08-12T03:35:02.887Z,62.67
2018-08-12T03:35:43.372Z,62.48
2018-08-12T03:36:23.891Z,63.15
2018-08-12T03:37:04.360Z,63.15
2018-08-12T03:37:44.835Z,62.67
2018-08-12T03:38:25.309Z,62.57
2018-08-12T03:39:05.833Z,62.67
2018-08-12T03:39:46.310Z,62.93
2018-08-12T03:40:26.772Z,63.31
2018-08-12T03:41:07.398Z,63.41
2018-08-12T03:41:47.845Z,63.7
2018-08-12T03:42:28.360Z,64.28
2018-08-12T03:43:08.855Z,64.37
2018-08-12T03:43:49.316Z,64.18
2018-08-12T03:44:29.816Z,64.18
2018-08-12T03:45:10.315Z,64.47
2018-08-12T03:45:50.815Z,64.37
2018-08-12T03:46:31.389Z,64.56
2018-08-12T03:47:11.912Z,64.47
2018-08-12T03:47:52.369Z,64.37
2018-08-12T03:48:32.839Z,64.37
2018-08-12T03:49:13.351Z,63.99
2018-08-12T03:49:53.922Z,64.37
2018-08-12T03:50:34.481Z,63.99
2018-08-12T03:51:14.928Z,64.66
2018-08-12T03:51:55.440Z,64.08
2018-08-12T03:52:35.957Z,64.18
2018-08-12T03:53:16.481Z,64.28
2018-08-12T03:53:56.994Z,63.99
2018-08-12T03:54:37.480Z,64.37
2018-08-12T03:55:18.237Z,64.47
2018-08-12T03:55:58.705Z,64.37
2018-08-12T03:56:39.250Z,64.66
2018-08-12T03:57:19.747Z,64.76
2018-08-12T03:58:00.418Z,65.24
2018-08-12T03:58:40.907Z,65.33
2018-08-12T03:59:21.386Z,65.24
2018-08-12T04:00:01.853Z,65.24
2018-08-12T04:00:42.344Z,65.14
2018-08-12T04:01:22.838Z,65.43
2018-08-12T04:02:03.308Z,65.05
2018-08-12T04:02:43.843Z,64.95
2018-08-12T04:03:24.307Z,65.08
2018-08-12T04:04:04.815Z,65.24
2018-08-12T04:04:45.256Z,65.14
2018-08-12T04:05:25.802Z,65.14
2018-08-12T04:06:06.316Z,65.43
2018-08-12T04:06:46.807Z,65.81
2018-08-12T04:07:27.295Z,65.81
2018-08-12T04:08:07.756Z,65.63
2018-08-12T04:08:48.292Z,65.63
2018-08-12T04:09:28.803Z,66.01
2018-08-12T04:10:09.275Z,65.81
2018-08-12T04:10:49.764Z,66.01
2018-08-12T04:11:30.331Z,66.01
2018-08-12T04:12:10.764Z,66.2
2018-08-12T04:12:51.358Z,65.72
2018-08-12T04:13:31.802Z,65.72
2018-08-12T04:14:12.248Z,65.63
2018-08-12T04:14:53.311Z,65.72
2018-08-12T04:15:33.352Z,65.33
2018-08-12T04:16:13.859Z,65.53
2018-08-12T04:18:12.005Z,65.33
2018-08-12T04:18:52.565Z,65.72
2018-08-12T04:19:33.029Z,65.91
2018-08-12T04:20:13.544Z,65.63
2018-08-12T04:20:54.046Z,65.72
2018-08-12T04:21:34.559Z,65.72
2018-08-12T04:22:15.035Z,65.43
2018-08-12T04:22:55.566Z,65.81
2018-08-12T04:23:36.023Z,65.43
2018-08-12T04:24:16.576Z,65.24
2018-08-12T04:24:57.038Z,65.14
2018-08-12T04:25:37.553Z,64.95
2018-08-12T04:26:18.055Z,64.86
2018-08-12T04:26:58.585Z,65.53
2018-08-12T04:27:39.052Z,64.76
2018-08-12T04:28:19.600Z,64.56
2018-08-12T04:29:00.050Z,64.47
2018-08-12T04:29:40.572Z,64.18
2018-08-12T04:30:21.031Z,64.28
2018-08-12T04:31:01.664Z,63.89
2018-08-12T04:31:42.135Z,64.21
2018-08-12T04:32:22.746Z,63.73
2018-08-12T04:33:03.290Z,63.73
2018-08-12T04:33:43.826Z,63.06
2018-08-12T04:34:24.304Z,63.54
2018-08-12T04:35:04.721Z,63.34
2018-08-12T04:35:45.239Z,62.87
2018-08-12T04:36:25.696Z,62.77
2018-08-12T04:37:06.224Z,62.67
2018-08-12T04:37:46.664Z,62.57
2018-08-12T04:38:27.143Z,63.02
2018-08-12T04:39:07.664Z,63.12
2018-08-12T04:39:48.143Z,62.74
2018-08-12T04:40:28.637Z,62.83
2018-08-12T04:41:09.112Z,62.96
2018-08-12T04:41:49.611Z,62.77
2018-08-12T04:42:30.105Z,63.25
2018-08-12T04:43:10.616Z,63.41
2018-08-12T04:43:51.148Z,63.12
2018-08-12T04:44:31.650Z,63.12
2018-08-12T04:45:12.143Z,62.77
2018-08-12T04:45:52.694Z,62.96
2018-08-12T04:46:33.128Z,63.06
2018-08-12T04:47:13.639Z,63.06
2018-08-12T04:47:54.253Z,62.77
2018-08-12T04:48:34.735Z,63.12
2018-08-12T04:49:15.261Z,63.25
2018-08-12T04:49:55.696Z,63.15
2018-08-12T04:50:36.168Z,63.15
2018-08-12T04:51:16.627Z,62.77
2018-08-12T04:51:57.241Z,62.57
2018-08-12T04:52:37.597Z,62.87
2018-08-12T04:53:18.106Z,62.38
2018-08-12T04:53:58.688Z,62.57
2018-08-12T04:54:39.129Z,62.29
2018-08-12T04:55:19.600Z,62.19
2018-08-12T04:56:00.085Z,62
2018-08-12T04:56:41.526Z,61.71
2018-08-12T04:57:22.049Z,61.71
2018-08-12T04:58:02.563Z,61.71
2018-08-12T04:58:43.100Z,61.8
2018-08-12T04:59:23.591Z,61.8
2018-08-12T05:00:04.146Z,61.9
2018-08-12T05:00:44.630Z,61.71
2018-08-12T05:01:25.124Z,61.42
2018-08-12T05:02:05.617Z,61.61
2018-08-12T05:02:46.106Z,61.71
2018-08-12T05:03:26.615Z,61.71
2018-08-12T05:04:07.091Z,61.71
2018-08-12T05:04:47.616Z,61.61
2018-08-12T05:05:28.082Z,61.42
2018-08-12T05:06:08.615Z,61.9
2018-08-12T05:06:49.072Z,61.9
2018-08-12T05:07:29.596Z,61.42
2018-08-12T05:08:10.075Z,61.61
2018-08-12T05:08:50.580Z,61.71
2018-08-12T05:09:31.028Z,62.19
2018-08-12T05:10:11.580Z,61.71
2018-08-12T05:10:52.047Z,61.71
2018-08-12T05:11:32.563Z,62
2018-08-12T05:12:13.069Z,61.71
2018-08-12T05:12:53.891Z,61.74
2018-08-12T05:13:34.093Z,62
2018-08-12T05:14:14.574Z,61.71
2018-08-12T05:14:55.067Z,62
2018-08-12T05:15:35.567Z,62
2018-08-12T05:16:16.032Z,62.32
2018-08-12T05:16:56.544Z,62.22
2018-08-12T05:17:37.090Z,61.74
2018-08-12T05:18:17.555Z,61.74
2018-08-12T05:18:58.053Z,61.74
2018-08-12T05:19:38.566Z,62.03
2018-08-12T05:20:19.062Z,62.32
2018-08-12T05:20:59.573Z,62.32
2018-08-12T05:21:40.048Z,61.93
2018-08-12T05:22:20.558Z,61.16
2018-08-12T05:23:01.055Z,61.16
2018-08-12T05:23:41.559Z,61.93
2018-08-12T05:24:22.112Z,60.77
2018-08-12T05:25:02.610Z,60.55
2018-08-12T05:25:43.100Z,60.3
2018-08-12T05:26:23.558Z,60.27
2018-08-12T05:27:04.079Z,61.07
2018-08-12T05:27:44.538Z,60.97
2018-08-12T05:28:25.022Z,60.75
2018-08-12T05:29:05.540Z,61.55
2018-08-12T05:31:18.879Z,61.35
2018-08-12T05:31:59.381Z,61.35
2018-08-12T05:32:39.973Z,60.97
2018-08-12T05:33:20.458Z,60.68
2018-08-12T05:34:00.945Z,60.58
2018-08-12T05:34:41.442Z,60.2
2018-08-12T05:35:21.921Z,60.39
2018-08-12T05:36:02.449Z,60.49
2018-08-12T05:36:42.889Z,60
2018-08-12T05:37:23.408Z,60.3
2018-08-12T05:38:03.921Z,60.49
2018-08-12T05:38:44.390Z,60.49
2018-08-12T05:39:24.920Z,60.2
2018-08-12T05:40:05.418Z,60.39
2018-08-12T05:40:45.921Z,60.2
2018-08-12T05:41:26.480Z,60.49
2018-08-12T05:42:06.932Z,60.2
2018-08-12T05:42:47.422Z,60.3
2018-08-12T05:43:27.955Z,60.49
2018-08-12T05:44:08.454Z,60.39
2018-08-12T05:44:48.912Z,60
2018-08-12T05:45:29.408Z,60.52
2018-08-12T05:46:09.905Z,60.13
2018-08-12T05:46:50.456Z,60.03
2018-08-12T05:47:31.003Z,60.32
2018-08-12T05:48:11.451Z,59.84
2018-08-12T05:48:51.960Z,59.58
2018-08-12T05:49:32.420Z,59.1
2018-08-12T05:50:12.932Z,58.23
2018-08-12T05:50:53.428Z,57.94
2018-08-12T05:51:34.015Z,57.75
2018-08-12T05:52:14.397Z,56.72
2018-08-12T05:52:54.900Z,56.14
2018-08-12T05:53:35.433Z,56.16
2018-08-12T05:54:15.946Z,55.78
2018-08-12T05:54:56.430Z,55.78
2018-08-12T05:55:36.903Z,55.98
2018-08-12T05:56:17.403Z,55.98
2018-08-12T05:56:57.911Z,55.98
2018-08-12T05:57:38.449Z,55.88
2018-08-12T05:58:25.040Z,55.78
2018-08-12T05:59:05.537Z,55.59
2018-08-12T05:59:46.198Z,55.88
2018-08-12T06:00:26.927Z,55.98
2018-08-12T06:02:19.828Z,55.88
2018-08-12T06:03:00.358Z,55.85
2018-08-12T06:03:40.843Z,55.85
2018-08-12T06:04:21.361Z,55.85
2018-08-12T06:05:01.856Z,55.46
2018-08-12T06:05:42.362Z,56.04
2018-08-12T06:06:22.888Z,55.66
2018-08-12T06:07:03.381Z,55.94
2018-08-12T06:07:43.862Z,56.04
2018-08-12T06:08:24.397Z,56.04
2018-08-12T06:09:04.852Z,56.14
2018-08-12T06:09:45.341Z,56.59
2018-08-12T06:10:25.806Z,56.52
2018-08-12T06:11:06.277Z,56.24
2018-08-12T06:11:46.738Z,56.43
2018-08-12T06:12:27.386Z,56.59
2018-08-12T06:13:08.061Z,56.43
2018-08-12T06:13:48.557Z,56.14
2018-08-12T06:14:29.113Z,56.52
2018-08-12T06:15:09.581Z,55.94
2018-08-12T06:15:50.129Z,56.04
2018-08-12T06:16:30.635Z,55.94
2018-08-12T06:17:14.760Z,55.85
2018-08-12T06:17:55.211Z,55.85
2018-08-12T06:18:35.802Z,55.85
2018-08-12T06:19:16.200Z,55.85
2018-08-12T06:19:56.644Z,55.3
2018-08-12T06:20:37.153Z,55.98
2018-08-12T06:21:17.636Z,55.88
2018-08-12T06:21:58.130Z,55.76
2018-08-12T06:22:38.593Z,55.66
2018-08-12T06:23:19.142Z,55.68
2018-08-12T06:23:59.622Z,55.88
2018-08-12T06:24:40.113Z,56.07
2018-08-12T06:25:20.602Z,56.04
2018-08-12T06:26:01.060Z,56.33
2018-08-12T06:26:41.559Z,56.52
2018-08-12T06:27:22.113Z,55.76
2018-08-12T06:28:02.558Z,55.76
2018-08-12T06:28:43.060Z,55.66
2018-08-12T06:29:23.551Z,55.85
2018-08-12T06:30:04.057Z,55.27
2018-08-12T06:30:44.579Z,55.66
2018-08-12T06:31:25.113Z,55.76
2018-08-12T06:32:05.641Z,55.85
2018-08-12T06:32:46.120Z,55.56
2018-08-12T06:33:26.619Z,55.76
2018-08-12T06:34:07.145Z,55.98
2018-08-12T06:34:47.643Z,55.76
2018-08-12T06:35:28.154Z,55.85
2018-08-12T06:36:08.658Z,56.04
2018-08-12T06:36:49.167Z,55.56
2018-08-12T06:37:29.634Z,55.94
2018-08-12T06:38:10.140Z,55.46
2018-08-12T06:38:50.664Z,55.56
2018-08-12T06:39:31.136Z,55.56
2018-08-12T06:40:11.668Z,55.94
2018-08-12T06:40:52.103Z,56.33
2018-08-12T06:41:32.596Z,56.24
2018-08-12T06:42:13.088Z,56.52
2018-08-12T06:42:53.597Z,56.33
2018-08-12T06:43:34.111Z,56.33
2018-08-12T06:44:14.619Z,56.14
2018-08-12T06:44:55.191Z,56.33
2018-08-12T06:45:35.753Z,56.14
2018-08-12T06:46:16.228Z,56.24
2018-08-12T06:46:56.702Z,56.04
2018-08-12T06:47:37.218Z,55.78
2018-08-12T06:48:17.736Z,55.88
2018-08-12T06:48:58.231Z,55.98
2018-08-12T06:49:38.731Z,56.07
2018-08-12T06:50:19.239Z,55.2
2018-08-12T06:50:59.782Z,54.72
2018-08-12T06:51:40.246Z,54.65
2018-08-12T06:52:20.720Z,54.46
2018-08-12T06:53:01.203Z,54.27
2018-08-12T06:53:41.779Z,54.68
2018-08-12T06:54:22.252Z,53.42
2018-08-12T06:55:02.769Z,53.23
2018-08-12T06:55:43.286Z,53.33
2018-08-12T06:56:23.778Z,53.23
2018-08-12T06:57:04.261Z,52.67
2018-08-12T06:57:44.777Z,52.58
2018-08-12T06:58:25.215Z,52.77
2018-08-12T06:59:05.695Z,52.09
2018-08-12T06:59:46.172Z,52.12
2018-08-12T07:00:26.764Z,52.02
2018-08-12T07:01:07.195Z,52.22
2018-08-12T07:01:47.723Z,51.35
2018-08-12T07:02:28.203Z,50.67
2018-08-12T07:03:08.719Z,50.48
2018-08-12T07:03:49.226Z,50.67
2018-08-12T07:04:29.660Z,50.48
2018-08-12T07:05:10.199Z,50.38
2018-08-12T07:05:50.683Z,50.67
2018-08-12T07:06:31.198Z,51.15
2018-08-12T07:07:11.666Z,51.56
2018-08-12T07:07:52.213Z,51.37
2018-08-12T07:08:32.672Z,51.28
2018-08-12T07:09:13.169Z,51.28
2018-08-12T07:09:53.624Z,51.18
2018-08-12T07:10:34.111Z,51.37
2018-08-12T07:11:14.619Z,51.47
2018-08-12T07:11:55.121Z,50.98
2018-08-12T07:12:35.634Z,51.28
2018-08-12T07:13:16.099Z,51.18
2018-08-12T07:13:56.600Z,51.18
2018-08-12T07:14:37.105Z,50.98
2018-08-12T07:15:17.602Z,50.79
2018-08-12T07:15:58.100Z,51.08
2018-08-12T07:16:38.612Z,50.6
2018-08-12T07:17:19.116Z,50.79
2018-08-12T07:17:59.630Z,50.02
2018-08-12T07:18:40.170Z,50.4
2018-08-12T07:19:20.640Z,49.95
2018-08-12T07:20:01.152Z,49.65
2018-08-12T07:20:41.636Z,49.56
2018-08-12T07:21:22.345Z,50.04
2018-08-12T07:22:02.784Z,49.95
2018-08-12T07:22:43.362Z,49.56
2018-08-12T07:23:23.864Z,50.14
2018-08-12T07:24:04.345Z,50.04
2018-08-12T07:24:44.852Z,49.39
2018-08-12T07:25:25.319Z,49.19
2018-08-12T07:26:05.842Z,49.37
2018-08-12T07:26:46.316Z,49.39
2018-08-12T07:27:26.792Z,49.49
2018-08-12T07:28:07.345Z,49.29
2018-08-12T07:28:47.795Z,49.49
2018-08-12T07:29:28.251Z,49.58
2018-08-12T07:30:08.806Z,49.87
2018-08-12T07:30:49.220Z,49.1
2018-08-12T07:31:29.727Z,49
2018-08-12T07:32:10.288Z,48.61
2018-08-12T07:32:50.813Z,48.61
2018-08-12T07:33:31.224Z,48.9
2018-08-12T07:34:11.712Z,48.81
2018-08-12T07:34:52.198Z,48.71
2018-08-12T07:35:32.755Z,48.9
2018-08-12T07:36:13.253Z,48.71
2018-08-12T07:36:53.706Z,48.71
2018-08-12T07:37:34.211Z,48.81
2018-08-12T07:38:14.732Z,49
2018-08-12T07:38:55.220Z,48.81
2018-08-12T07:39:35.819Z,49.19
2018-08-12T07:40:16.302Z,49
2018-08-12T07:52:23.281Z,48.83
2018-08-12T07:53:03.822Z,48.81
2018-08-12T07:53:44.365Z,48.64
2018-08-12T07:54:24.890Z,48.54
2018-08-12T07:55:05.419Z,48.44
2018-08-12T07:55:45.976Z,48.52
2018-08-12T07:56:26.475Z,49.19
2018-08-12T07:57:06.991Z,48.54
2018-08-12T07:57:47.514Z,48.44
2018-08-12T07:58:28.058Z,48.83
2018-08-12T07:59:08.657Z,48.15
2018-08-12T07:59:49.159Z,48.15
2018-08-12T08:00:29.734Z,48.25
2018-08-12T08:01:10.253Z,48.54
2018-08-12T08:01:50.713Z,48.44
2018-08-12T08:02:31.199Z,48.83
2018-08-12T08:03:11.707Z,48.35
2018-08-12T08:03:52.244Z,48.44
2018-08-12T08:04:32.702Z,48.74
2018-08-12T08:05:13.219Z,48.64
2018-08-12T08:05:53.731Z,48.83
2018-08-12T08:06:34.285Z,48.64
2018-08-12T08:07:14.808Z,49.22
2018-08-12T08:07:55.293Z,49.61
2018-08-12T08:08:35.733Z,49.51
2018-08-12T08:09:16.303Z,49.22
2018-08-12T08:09:56.786Z,49.12
2018-08-12T08:10:37.307Z,49.12
2018-08-12T08:11:17.808Z,48.93
2018-08-12T08:11:58.263Z,48.54
2018-08-12T08:12:38.933Z,48.9
2018-08-12T08:13:19.251Z,48.93
2018-08-12T08:13:59.786Z,48.81
2018-08-12T08:14:40.328Z,49.19
2018-08-12T08:15:20.835Z,49.29
2018-08-12T08:16:01.354Z,49.58
2018-08-12T08:16:41.901Z,49.49
2018-08-12T08:17:22.423Z,50.16
2018-08-12T08:18:02.931Z,50.35
2018-08-12T08:18:43.424Z,50.16
2018-08-12T08:19:23.951Z,49.77
2018-08-12T08:20:04.489Z,49.87
2018-08-12T08:20:45.024Z,49.97
2018-08-12T08:21:25.521Z,50.55
2018-08-12T08:22:06.017Z,49.87
2018-08-12T08:22:46.562Z,49.97
2018-08-12T08:23:27.061Z,50.35
2018-08-12T08:24:08.357Z,50.35
2018-08-12T08:24:48.850Z,50.07
2018-08-12T08:25:29.474Z,50.35
2018-08-12T08:26:09.890Z,50.45
2018-08-12T08:26:50.393Z,50.26
2018-08-12T08:27:31.338Z,50.35
2018-08-12T08:28:11.848Z,49.68
2018-08-12T08:28:52.367Z,49.58
2018-08-12T08:29:32.991Z,49.49
2018-08-12T08:30:13.481Z,49.87
2018-08-12T08:30:54.004Z,50.35
2018-08-12T08:31:34.561Z,50.35
2018-08-12T08:32:15.072Z,50.45
2018-08-12T08:32:55.569Z,50.07
2018-08-12T08:33:36.112Z,50.26
2018-08-12T08:34:16.672Z,50.33
2018-08-12T08:34:57.241Z,50.24
2018-08-12T08:35:37.772Z,50.62
2018-08-12T08:36:18.328Z,50.62
2018-08-12T08:36:58.773Z,50.74
2018-08-12T08:37:39.287Z,50.74
2018-08-12T08:38:19.880Z,50.45
2018-08-12T08:39:00.366Z,50.16
2018-08-12T08:39:40.891Z,50.26
2018-08-12T08:40:21.434Z,50.55
2018-08-12T08:41:01.907Z,50.65
2018-08-12T08:41:42.387Z,50.55
2018-08-12T08:42:22.885Z,50.65
2018-08-12T08:43:03.430Z,50.16
2018-08-12T08:43:43.935Z,50.45
2018-08-12T08:44:24.451Z,50.45
2018-08-12T08:45:04.929Z,50.65
2018-08-12T08:45:45.441Z,50.94
2018-08-12T08:46:25.934Z,50.45
2018-08-12T08:47:06.398Z,50.45
2018-08-12T08:47:47.150Z,50.84
2018-08-12T08:48:28.135Z,50.84
2018-08-12T08:49:08.929Z,50.74
2018-08-12T08:49:49.785Z,50.74
2018-08-12T08:50:30.317Z,50.84
2018-08-12T08:51:10.759Z,50.74
2018-08-12T08:51:51.258Z,51.32
2018-08-12T08:52:31.757Z,51.32
2018-08-12T08:53:12.285Z,51.13
2018-08-12T08:53:52.964Z,50.84
2018-08-12T08:54:33.642Z,50.74
2018-08-12T08:55:14.642Z,50.74
2018-08-12T08:55:55.477Z,50.74
2018-08-12T08:56:35.897Z,50.55
2018-08-12T08:57:16.323Z,50.65
2018-08-12T08:57:57.008Z,50.55
2018-08-12T08:58:37.512Z,50.65
2018-08-12T08:59:18.154Z,50.65
2018-08-12T08:59:58.652Z,50.45
2018-08-12T09:00:39.169Z,50.35
2018-08-12T09:01:19.846Z,50.35
2018-08-12T09:02:00.215Z,50.35
2018-08-12T09:02:40.827Z,50.55
2018-08-12T09:03:21.354Z,50.35